Time;durP1;ratioP1;P1;durP2;ratioP2;P2;SDS_P1;SDS_P2;PMS_P1;PMS_P2;Temp;Humidity;BMP_temperature;BMP_pressure;BME280_temperature;BME280_humidity;BME280_pressure;Samples;Min_cycle;Max_cycle;Signal;HPM_P1;HPM_P2
2022/11/17 00:01:23;;;;;;;;;;;;;;;6.45;86.65;96451.56;5087440;28;19931;-56
2022/11/17 00:03:54;;;;;;;;;;;;;;;6.50;86.71;96446.78;5091901;28;20296;-56
2022/11/17 00:06:22;;;;;;;;;;;;;;;6.55;86.61;96443.09;5093401;28;19924;-55
2022/11/17 00:08:50;;;;;;;;;;;;;;;6.52;86.51;96441.06;5085408;28;19932;-57
2022/11/17 00:11:18;;;;;;;;;;;;;;;6.54;86.81;96434.22;5088335;28;19924;-56
2022/11/17 00:16:35;;;;;;;;;;;;;;;6.53;86.84;96431.84;5082273;28;19928;-56
2022/11/17 00:21:52;;;;;;;;;;;;;;;6.62;86.86;96427.22;5074590;28;19924;-56
2022/11/17 00:24:22;;;;;;;;;;;;;;;6.60;87.02;96426.75;5085373;28;19928;-54
2022/11/17 00:27:02;;;;;;;;;;;;;;;6.61;87.30;96425.66;5092945;28;19928;-55
2022/11/17 00:29:31;;;;;;;;;;;;;;;6.64;87.69;96425.00;5088481;28;19931;-55
2022/11/17 00:34:45;;;;;;;;;;;;;;;6.69;87.28;96432.91;5079511;28;19931;-56
2022/11/17 00:37:13;;;;;;;;;;;;;;;6.69;87.82;96424.81;5086209;28;19924;-56
2022/11/17 00:39:41;;;;;;;;;;;;;;;6.74;87.65;96431.97;5084192;28;19928;-56
2022/11/17 00:42:34;;;;;;;;;;;;;;;6.79;87.56;96429.88;5080075;28;19931;-56
2022/11/17 00:45:07;;;;;;;;;;;;;;;6.80;87.48;96425.25;5076245;28;19932;-56
2022/11/17 00:47:36;;;;;;;;;;;;;;;6.82;87.80;96420.34;5074234;28;19947;-56
2022/11/17 00:50:05;;;;;;;;;;;;;;;6.80;87.91;96422.56;5080640;28;19924;-56
2022/11/17 00:52:33;;;;;;;;;;;;;;;6.83;87.94;96414.63;5081457;28;19924;-56
2022/11/17 00:55:01;;;;;;;;;;;;;;;6.85;87.63;96413.50;5081188;28;20301;-56
2022/11/17 00:57:29;;;;;;;;;;;;;;;6.91;87.65;96407.59;5081451;28;19924;-56
2022/11/17 00:59:58;;;;;;;;;;;;;;;6.93;87.69;96405.38;5074411;28;19932;-56
2022/11/17 01:02:26;;;;;;;;;;;;;;;6.97;87.62;96405.50;5084983;28;19924;-56
2022/11/17 01:04:55;;;;;;;;;;;;;;;6.92;87.47;96402.97;5077387;28;19928;-57
2022/11/17 01:07:24;;;;;;;;;;;;;;;6.93;87.72;96399.19;5091053;28;19939;-56
2022/11/17 01:09:53;;;;;;;;;;;;;;;6.92;88.02;96403.78;5094995;28;19931;-56
2022/11/17 01:12:21;;;;;;;;;;;;;;;6.99;87.62;96397.88;5089994;28;20443;-56
2022/11/17 01:14:48;;;;;;;;;;;;;;;6.99;87.72;96395.19;5083503;28;19963;-56
2022/11/17 01:17:16;;;;;;;;;;;;;;;7.04;87.52;96393.09;5087406;28;19947;-57
2022/11/17 01:19:45;;;;;;;;;;;;;;;7.10;87.10;96393.69;5089356;28;19924;-55
2022/11/17 01:22:12;;;;;;;;;;;;;;;7.11;87.22;96395.28;5076629;28;19924;-58
2022/11/17 01:25:06;;;;;;;;;;;;;;;7.15;87.00;96401.63;5112711;28;19924;-58
2022/11/17 01:27:35;;;;;;;;;;;;;;;7.14;87.23;96394.66;5113670;28;19923;-57
2022/11/17 01:30:03;;;;;;;;;;;;;;;7.10;87.60;96393.69;5109280;28;19924;-56
2022/11/17 01:32:32;;;;;;;;;;;;;;;7.13;87.44;96384.94;5100693;28;19924;-56
2022/11/17 01:35:25;;;;;;;;;;;;;;;7.14;87.30;96378.44;5102553;28;20377;-56
2022/11/17 01:37:53;;;;;;;;;;;;;;;7.13;87.35;96392.25;5086400;28;19930;-56
2022/11/17 01:40:23;;;;;;;;;;;;;;;7.13;87.72;96379.53;5107702;28;20018;-55
2022/11/17 01:42:51;;;;;;;;;;;;;;;7.15;87.60;96384.63;5116423;27;19977;-56
2022/11/17 01:45:20;;;;;;;;;;;;;;;7.14;87.39;96383.84;5093638;28;19924;-60
2022/11/17 01:47:48;;;;;;;;;;;;;;;7.13;87.93;96376.84;5115828;28;20582;-56
2022/11/17 01:50:19;;;;;;;;;;;;;;;7.17;87.85;96366.97;5107105;28;20296;-57
2022/11/17 01:53:13;;;;;;;;;;;;;;;7.21;87.59;96367.91;5102511;28;19981;-56
2022/11/17 01:55:43;;;;;;;;;;;;;;;7.25;87.38;96354.53;5103214;27;19977;-56
2022/11/17 01:58:12;;;;;;;;;;;;;;;7.33;86.45;96349.06;5108696;28;19928;-56
2022/11/17 02:00:40;;;;;;;;;;;;;;;7.32;86.55;96352.09;5117832;27;19924;-56
2022/11/17 02:03:09;;;;;;;;;;;;;;;7.26;86.75;96346.09;5101792;28;20018;-56
2022/11/17 02:05:40;;;;;;;;;;;;;;;7.27;86.94;96333.38;5092955;28;19927;-56
2022/11/17 02:08:08;;;;;;;;;;;;;;;7.28;86.74;96329.56;5102803;28;19932;-56
2022/11/17 02:10:37;;;;;;;;;;;;;;;7.32;86.71;96317.78;5085901;28;20400;-56
2022/11/17 02:13:06;;;;;;;;;;;;;;;7.31;86.74;96334.31;5083321;28;19953;-56
2022/11/17 02:15:33;;;;;;;;;;;;;;;7.30;87.14;96328.13;5102029;28;19959;-56
2022/11/17 02:18:02;;;;;;;;;;;;;;;7.25;87.17;96322.91;5076495;28;19973;-56
2022/11/17 02:20:43;;;;;;;;;;;;;;;7.26;87.24;96318.31;5092372;28;19931;-61
2022/11/17 02:23:30;;;;;;;;;;;;;;;7.26;87.19;96311.00;5092962;28;20721;-56
2022/11/17 02:26:28;;;;;;;;;;;;;;;7.29;87.45;96326.53;5071023;28;19946;-56
2022/11/17 02:28:58;;;;;;;;;;;;;;;7.28;87.31;96313.34;5019074;28;19952;-57
2022/11/17 02:31:28;;;;;;;;;;;;;;;7.33;87.17;96319.34;5080933;28;19924;-56
2022/11/17 02:34:04;;;;;;;;;;;;;;;7.36;87.09;96309.81;5106485;28;19969;-56
2022/11/17 02:36:34;;;;;;;;;;;;;;;7.35;86.69;96311.72;5094324;28;19935;-56
2022/11/17 02:39:05;;;;;;;;;;;;;;;7.30;86.91;96300.34;5080953;28;19923;-56
2022/11/17 02:41:34;;;;;;;;;;;;;;;7.27;87.10;96290.97;5099231;28;19928;-55
2022/11/17 02:44:05;;;;;;;;;;;;;;;7.30;86.92;96279.50;5096384;28;19974;-56
2022/11/17 02:46:37;;;;;;;;;;;;;;;7.26;87.04;96281.28;5101325;28;19977;-56
2022/11/17 02:49:06;;;;;;;;;;;;;;;7.26;87.33;96286.69;5118678;28;19928;-55
2022/11/17 02:51:33;;;;;;;;;;;;;;;7.31;87.07;96275.69;5108470;28;20353;-56
2022/11/17 02:54:02;;;;;;;;;;;;;;;7.29;86.96;96269.78;5100101;28;19924;-55
2022/11/17 02:56:30;;;;;;;;;;;;;;;7.30;87.15;96268.69;5106392;28;19923;-56
2022/11/17 02:58:59;;;;;;;;;;;;;;;7.32;86.88;96268.38;5091595;28;19928;-57
2022/11/17 03:01:36;;;;;;;;;;;;;;;7.31;86.83;96267.56;5110826;28;19932;-55
2022/11/17 03:04:09;;;;;;;;;;;;;;;7.31;86.85;96259.47;5116122;28;19950;-55
2022/11/17 03:07:02;;;;;;;;;;;;;;;7.31;86.79;96251.38;5104129;28;19951;-55
2022/11/17 03:09:33;;;;;;;;;;;;;;;7.36;86.62;96244.97;5099639;28;20338;-55
2022/11/17 03:12:02;;;;;;;;;;;;;;;7.38;86.27;96241.94;5091102;28;19924;-56
2022/11/17 03:14:34;;;;;;;;;;;;;;;7.34;86.45;96233.69;5085840;28;19943;-56
2022/11/17 03:17:05;;;;;;;;;;;;;;;7.35;86.79;96227.19;5091640;28;20443;-56
2022/11/17 03:19:33;;;;;;;;;;;;;;;7.35;86.73;96227.97;5098653;28;19956;-57
2022/11/17 03:24:55;;;;;;;;;;;;;;;7.32;86.55;96217.81;5092786;28;20339;-56
2022/11/17 03:27:24;;;;;;;;;;;;;;;7.30;86.75;96220.06;5101489;28;19924;-56
2022/11/17 03:29:53;;;;;;;;;;;;;;;7.31;86.84;96224.34;5097406;28;19936;-56
2022/11/17 03:32:23;;;;;;;;;;;;;;;7.34;86.84;96220.97;5101800;28;19931;-55
2022/11/17 03:34:52;;;;;;;;;;;;;;;7.30;86.94;96222.78;5105454;28;19932;-56
2022/11/17 03:37:46;;;;;;;;;;;;;;;7.29;87.17;96229.28;5099673;28;19931;-56
2022/11/17 03:40:14;;;;;;;;;;;;;;;7.28;87.18;96226.91;5092613;28;20406;-56
2022/11/17 03:42:43;;;;;;;;;;;;;;;7.28;87.12;96224.22;5096265;28;20373;-56
2022/11/17 03:45:14;;;;;;;;;;;;;;;7.29;87.08;96229.28;5091367;28;19996;-56
2022/11/17 03:47:43;;;;;;;;;;;;;;;7.28;87.07;96225.00;5109523;27;19923;-56
2022/11/17 03:50:12;;;;;;;;;;;;;;;7.26;87.18;96218.38;5112440;28;19935;-56
2022/11/17 03:52:43;;;;;;;;;;;;;;;7.29;87.29;96217.69;5102970;27;20351;-56
2022/11/17 03:55:10;;;;;;;;;;;;;;;7.30;87.06;96214.69;5108117;27;20051;-56
2022/11/17 03:57:40;;;;;;;;;;;;;;;7.33;86.97;96214.00;5108995;27;20323;-56
2022/11/17 04:00:13;;;;;;;;;;;;;;;7.34;86.76;96214.78;5104575;28;19947;-56
2022/11/17 04:02:41;;;;;;;;;;;;;;;7.32;87.06;96203.53;5108589;27;19927;-56
2022/11/17 04:05:12;;;;;;;;;;;;;;;7.31;86.84;96199.25;5103050;28;19939;-56
2022/11/17 04:07:42;;;;;;;;;;;;;;;7.30;86.88;96186.88;5101013;28;20020;-56
2022/11/17 04:10:11;;;;;;;;;;;;;;;7.31;86.93;96189.25;5101975;28;20022;-56
2022/11/17 04:18:15;;;;;;;;;;;;;;;7.27;86.84;96188.31;5120115;28;19924;-56
2022/11/17 04:20:44;;;;;;;;;;;;;;;7.29;86.91;96186.06;5111959;28;19931;-55
2022/11/17 04:23:13;;;;;;;;;;;;;;;7.27;87.02;96182.91;5111748;28;19923;-57
2022/11/17 04:28:37;;;;;;;;;;;;;;;7.33;87.01;96167.28;5103144;28;19966;-57
2022/11/17 04:31:07;;;;;;;;;;;;;;;7.34;86.53;96161.53;5089935;28;19935;-56
2022/11/17 04:33:35;;;;;;;;;;;;;;;7.39;86.20;96149.75;5108065;28;19924;-56
2022/11/17 04:36:06;;;;;;;;;;;;;;;7.37;86.08;96140.41;5100846;28;19928;-56
2022/11/17 04:38:34;;;;;;;;;;;;;;;7.39;85.68;96141.63;5099251;28;19935;-56
2022/11/17 04:43:48;;;;;;;;;;;;;;;7.41;85.37;96130.53;5077576;28;19924;-56
2022/11/17 04:46:17;;;;;;;;;;;;;;;7.45;85.15;96112.50;5095284;28;19973;-56
2022/11/17 04:48:44;;;;;;;;;;;;;;;7.44;84.77;96100.13;5092219;28;19923;-56
2022/11/17 04:54:07;;;;;;;;;;;;;;;7.32;85.58;96153.00;5110200;28;19958;-56
2022/11/17 04:56:35;;;;;;;;;;;;;;;7.27;85.83;96149.72;5111241;27;19931;-56
2022/11/17 04:59:03;;;;;;;;;;;;;;;7.27;85.89;96137.00;5090192;28;19928;-55
2022/11/17 05:01:32;;;;;;;;;;;;;;;7.25;86.01;96136.53;5108584;27;19959;-56
2022/11/17 05:04:01;;;;;;;;;;;;;;;7.29;86.05;96145.53;5106307;28;19931;-57
2022/11/17 05:06:31;;;;;;;;;;;;;;;7.24;86.32;96134.94;5104522;28;19923;-56
2022/11/17 05:09:23;;;;;;;;;;;;;;;7.23;86.42;96140.69;5110001;28;19966;-56
2022/11/17 05:14:37;;;;;;;;;;;;;;;7.24;86.64;96148.44;5102337;28;19931;-56
2022/11/17 05:17:04;;;;;;;;;;;;;;;7.27;86.37;96145.09;5110862;27;20049;-57
2022/11/17 05:19:37;;;;;;;;;;;;;;;7.27;86.18;96150.50;5081909;28;19974;-56
2022/11/17 05:25:18;;;;;;;;;;;;;;;7.29;85.95;96171.78;5071130;28;19939;-57
2022/11/17 05:27:46;;;;;;;;;;;;;;;7.34;86.19;96168.84;5070993;28;20369;-56
2022/11/17 05:30:14;;;;;;;;;;;;;;;7.35;86.03;96179.34;5070016;28;20230;-55
2022/11/17 05:32:42;;;;;;;;;;;;;;;7.34;85.89;96172.34;5072841;28;19970;-57
2022/11/17 05:35:10;;;;;;;;;;;;;;;7.33;86.04;96151.06;5067820;28;19960;-56
2022/11/17 05:37:39;;;;;;;;;;;;;;;7.33;85.87;96167.28;5062714;28;20262;-57
2022/11/17 05:40:08;;;;;;;;;;;;;;;7.30;85.65;96160.66;5069411;28;20377;-57
2022/11/17 05:42:37;;;;;;;;;;;;;;;7.40;85.48;96158.63;5062860;28;20293;-57
2022/11/17 05:45:06;;;;;;;;;;;;;;;7.41;85.03;96155.63;5068864;28;19932;-56
2022/11/17 05:47:34;;;;;;;;;;;;;;;7.40;85.29;96158.63;5064188;28;19931;-64
2022/11/17 05:50:02;;;;;;;;;;;;;;;7.37;85.02;96149.28;5069647;28;19925;-55
2022/11/17 05:52:32;;;;;;;;;;;;;;;7.37;85.22;96148.50;5066887;28;19977;-56
2022/11/17 05:55:01;;;;;;;;;;;;;;;7.43;85.24;96160.69;5058907;28;20453;-55
2022/11/17 05:57:36;;;;;;;;;;;;;;;7.41;84.87;96165.63;5071331;28;19925;-56
2022/11/17 06:00:06;;;;;;;;;;;;;;;7.37;85.61;96164.72;5066953;28;19932;-59
2022/11/17 06:02:41;;;;;;;;;;;;;;;7.37;85.35;96162.03;5062475;28;19999;-56
2022/11/17 06:05:12;;;;;;;;;;;;;;;7.42;85.40;96162.59;5070494;28;19994;-56
2022/11/17 06:07:45;;;;;;;;;;;;;;;7.44;85.43;96159.56;5072171;28;20305;-55
2022/11/17 06:10:14;;;;;;;;;;;;;;;7.41;85.52;96154.84;5072995;28;19981;-56
2022/11/17 06:12:42;;;;;;;;;;;;;;;7.41;85.34;96162.94;5069622;28;19978;-56
2022/11/17 06:15:12;;;;;;;;;;;;;;;7.45;85.27;96171.94;5077984;28;19924;-56
2022/11/17 06:17:41;;;;;;;;;;;;;;;7.40;85.44;96154.00;5065509;28;20336;-56
2022/11/17 06:20:09;;;;;;;;;;;;;;;7.40;85.59;96154.00;5071534;28;19932;-56
2022/11/17 06:22:37;;;;;;;;;;;;;;;7.34;85.22;96150.75;5069297;28;19929;-55
2022/11/17 06:27:59;;;;;;;;;;;;;;;7.47;85.60;96158.91;5087579;28;19931;-55
2022/11/17 06:30:29;;;;;;;;;;;;;;;7.42;86.04;96167.22;5091470;28;20332;-56
2022/11/17 06:36:13;;;;;;;;;;;;;;;7.41;86.62;96176.44;5088851;28;19928;-57
2022/11/17 06:38:41;;;;;;;;;;;;;;;7.44;86.48;96175.75;5079190;28;19928;-59
2022/11/17 06:41:10;;;;;;;;;;;;;;;7.42;86.50;96183.41;5088622;28;19923;-55
2022/11/17 06:43:43;;;;;;;;;;;;;;;7.41;86.79;96189.97;5088673;28;19924;-56
2022/11/17 06:46:13;;;;;;;;;;;;;;;7.45;86.84;96193.56;5090894;28;20004;-57
2022/11/17 06:48:45;;;;;;;;;;;;;;;7.46;87.00;96195.16;5078009;28;20427;-56
2022/11/17 06:54:29;;;;;;;;;;;;;;;7.44;87.14;96202.78;5084610;28;19928;-57
2022/11/17 06:56:57;;;;;;;;;;;;;;;7.48;87.10;96203.72;5078710;28;20376;-56
2022/11/17 06:59:25;;;;;;;;;;;;;;;7.46;87.38;96195.16;5086945;28;19924;-55
2022/11/17 07:01:55;;;;;;;;;;;;;;;7.47;87.45;96207.53;5085425;28;19925;-57
2022/11/17 07:07:16;;;;;;;;;;;;;;;7.54;86.99;96191.56;5085078;28;19974;-57
2022/11/17 07:09:44;;;;;;;;;;;;;;;7.53;87.33;96203.50;5086422;28;19924;-56
2022/11/17 07:12:15;;;;;;;;;;;;;;;7.52;nan;96202.72;5081884;28;20402;-56
2022/11/17 07:14:43;;;;;;;;;;;;;;;7.50;87.65;96185.25;5078335;28;19925;-57
2022/11/17 07:17:12;;;;;;;;;;;;;;;7.48;87.84;96173.97;5084885;28;19928;-56
2022/11/17 07:19:40;;;;;;;;;;;;;;;7.49;88.15;96162.84;5086807;28;20349;-57
2022/11/17 07:22:33;;;;;;;;;;;;;;;7.66;86.95;96145.63;5082774;28;19924;-56
2022/11/17 07:25:04;;;;;;;;;;;;;;;7.61;87.07;96146.63;5105843;28;19923;-56
2022/11/17 07:27:32;;;;;;;;;;;;;;;7.56;87.04;96159.56;5111942;27;19928;-56
2022/11/17 07:30:00;;;;;;;;;;;;;;;7.60;87.00;96166.69;5084927;28;20288;-56
2022/11/17 07:32:30;;;;;;;;;;;;;;;7.57;87.31;96169.28;5109847;27;19978;-56
2022/11/17 07:37:50;;;;;;;;;;;;;;;7.57;87.14;96191.69;5109887;28;19977;-56
2022/11/17 07:40:22;;;;;;;;;;;;;;;7.53;87.03;96187.28;5106812;28;20377;-55
2022/11/17 07:42:55;;;;;;;;;;;;;;;7.69;86.31;96144.97;5104301;27;19923;-62
2022/11/17 07:45:23;;;;;;;;;;;;;;;7.71;86.77;96137.31;5093517;27;19935;-56
2022/11/17 07:47:57;;;;;;;;;;;;;;;7.67;86.58;96132.91;5082022;28;20651;-61
2022/11/17 07:50:26;;;;;;;;;;;;;;;7.67;86.31;96131.03;5109451;28;19939;-57
2022/11/17 07:52:54;;;;;;;;;;;;;;;7.69;87.11;96142.28;5090170;28;19923;-56
2022/11/17 07:55:22;;;;;;;;;;;;;;;7.72;87.11;96138.09;5102591;28;19924;-60
2022/11/17 07:57:54;;;;;;;;;;;;;;;7.69;86.88;96142.28;5115827;28;20501;-57
2022/11/17 08:00:22;;;;;;;;;;;;;;;7.71;87.05;96141.94;5101357;28;19932;-56
2022/11/17 08:02:51;;;;;;;;;;;;;;;7.74;86.83;96141.28;5112469;28;20284;-58
2022/11/17 08:05:21;;;;;;;;;;;;;;;7.73;86.75;96142.41;5116491;27;19984;-56
2022/11/17 08:07:54;;;;;;;;;;;;;;;7.75;86.95;96132.81;5105647;28;19924;-56
2022/11/17 08:10:22;;;;;;;;;;;;;;;7.85;86.35;96140.50;5086919;28;19924;-56
2022/11/17 08:12:52;;;;;;;;;;;;;;;7.85;86.32;96129.69;5105842;28;20373;-56
2022/11/17 08:15:21;;;;;;;;;;;;;;;7.86;86.42;96131.25;5101052;28;19958;-55
2022/11/17 08:17:51;;;;;;;;;;;;;;;7.87;86.50;96135.53;5087050;28;19960;-56
2022/11/17 08:20:21;;;;;;;;;;;;;;;7.89;86.55;96140.63;5104085;27;19924;-56
2022/11/17 08:22:49;;;;;;;;;;;;;;;7.94;86.67;96142.31;5103071;28;19924;-56
2022/11/17 08:25:18;;;;;;;;;;;;;;;8.00;86.11;96149.09;5107199;27;19924;-59
2022/11/17 08:27:50;;;;;;;;;;;;;;;8.04;86.17;96144.56;5112361;27;20180;-56
2022/11/17 08:30:21;;;;;;;;;;;;;;;8.05;85.89;96138.03;5103221;27;20338;-55
2022/11/17 08:32:50;;;;;;;;;;;;;;;8.09;85.74;96142.41;5118045;27;20392;-57
2022/11/17 08:35:19;;;;;;;;;;;;;;;8.13;85.41;96153.34;5099361;28;19969;-57
2022/11/17 08:37:49;;;;;;;;;;;;;;;8.14;85.22;96161.13;5112121;27;19928;-56
2022/11/17 08:40:20;;;;;;;;;;;;;;;8.16;85.19;96136.47;5100580;28;19973;-56
2022/11/17 08:42:55;;;;;;;;;;;;;;;8.29;84.54;96132.59;5107527;28;20285;-56
2022/11/17 08:45:28;;;;;;;;;;;;;;;8.40;84.04;96131.03;5098677;28;19924;-56
2022/11/17 08:47:56;;;;;;;;;;;;;;;8.50;83.68;96142.53;5111091;27;20380;-56
2022/11/17 08:50:24;;;;;;;;;;;;;;;8.58;83.62;96147.84;5116386;27;19935;-56
2022/11/17 08:52:54;;;;;;;;;;;;;;;8.66;84.03;96144.19;5110313;28;19992;-56
2022/11/17 08:55:22;;;;;;;;;;;;;;;8.90;82.67;96148.00;5104428;28;20380;-56
2022/11/17 08:57:51;;;;;;;;;;;;;;;8.91;82.19;96163.09;5115886;27;19923;-56
2022/11/17 09:00:20;;;;;;;;;;;;;;;8.87;82.49;96163.00;5095107;28;19959;-56
2022/11/17 09:02:48;;;;;;;;;;;;;;;8.86;81.63;96155.22;5112793;27;19924;-56
2022/11/17 09:05:16;;;;;;;;;;;;;;;8.81;81.79;96177.13;5094728;28;19930;-56
2022/11/17 09:07:45;;;;;;;;;;;;;;;8.76;82.16;96169.22;5085040;28;19932;-57
2022/11/17 09:10:14;;;;;;;;;;;;;;;8.75;82.16;96173.06;5110925;27;19924;-56
2022/11/17 09:12:43;;;;;;;;;;;;;;;8.77;82.12;96168.09;5120513;27;20392;-56
2022/11/17 09:15:11;;;;;;;;;;;;;;;8.70;82.45;96168.69;5106965;27;19924;-57
2022/11/17 09:17:39;;;;;;;;;;;;;;;8.71;82.67;96162.13;5102182;27;19924;-56
2022/11/17 09:20:08;;;;;;;;;;;;;;;8.82;81.76;96165.94;5106087;27;19939;-56
2022/11/17 09:22:36;;;;;;;;;;;;;;;8.79;82.24;96169.34;5112319;27;19932;-56
2022/11/17 09:25:05;;;;;;;;;;;;;;;8.86;82.15;96166.06;5108236;27;19923;-56
2022/11/17 09:27:39;;;;;;;;;;;;;;;8.88;82.27;96161.06;5112120;27;19924;-58
2022/11/17 09:30:08;;;;;;;;;;;;;;;8.86;82.31;96164.13;5103216;27;19932;-56
2022/11/17 09:32:39;;;;;;;;;;;;;;;8.90;82.75;96156.13;5114305;27;19994;-56
2022/11/17 09:35:09;;;;;;;;;;;;;;;8.90;81.61;96165.03;5103082;28;20077;-57
2022/11/17 09:37:38;;;;;;;;;;;;;;;8.88;81.72;96159.16;5101325;27;19992;-55
2022/11/17 09:40:09;;;;;;;;;;;;;;;8.87;82.16;96154.88;5092968;28;19931;-57
2022/11/17 09:42:37;;;;;;;;;;;;;;;8.89;82.92;96141.78;5108144;28;19958;-57
2022/11/17 09:45:09;;;;;;;;;;;;;;;8.99;82.11;96139.72;5082919;28;20304;-56
2022/11/17 09:47:39;;;;;;;;;;;;;;;8.94;82.25;96132.63;5105473;28;19924;-57
2022/11/17 09:50:13;;;;;;;;;;;;;;;8.87;82.60;96130.50;5110155;27;19927;-56
2022/11/17 09:52:43;;;;;;;;;;;;;;;8.84;82.70;96133.91;5087221;28;19927;-56
2022/11/17 09:55:15;;;;;;;;;;;;;;;8.74;82.69;96145.22;5108465;27;19927;-57
2022/11/17 09:57:44;;;;;;;;;;;;;;;8.66;83.42;96143.41;5100079;28;19928;-57
2022/11/17 10:00:15;;;;;;;;;;;;;;;8.61;84.11;96141.72;5089187;28;20693;-56
2022/11/17 10:02:43;;;;;;;;;;;;;;;8.66;83.95;96171.28;5110563;28;19977;-57
2022/11/17 10:05:15;;;;;;;;;;;;;;;8.63;84.54;96154.94;5111079;28;19923;-56
2022/11/17 10:07:45;;;;;;;;;;;;;;;8.61;85.15;96146.34;5102523;27;20346;-58
2022/11/17 10:10:15;;;;;;;;;;;;;;;8.64;85.27;96129.44;5104028;27;19923;-56
2022/11/17 10:12:44;;;;;;;;;;;;;;;8.70;85.72;96122.66;5115649;27;20365;-57
2022/11/17 10:15:19;;;;;;;;;;;;;;;8.75;85.26;96125.13;5112924;27;20395;-56
2022/11/17 10:17:47;;;;;;;;;;;;;;;8.81;85.46;96118.34;5093734;27;19935;-55
2022/11/17 10:20:17;;;;;;;;;;;;;;;8.88;85.22;96126.66;5108651;28;20289;-56
2022/11/17 10:22:46;;;;;;;;;;;;;;;8.92;85.00;96132.97;5108616;28;19923;-55
2022/11/17 10:25:29;;;;;;;;;;;;;;;9.03;84.99;96141.38;5084847;28;19978;-56
2022/11/17 10:27:58;;;;;;;;;;;;;;;9.14;84.41;96131.63;5071342;28;19928;-57
2022/11/17 10:30:27;;;;;;;;;;;;;;;9.28;84.03;96131.25;5063382;28;19966;-58
2022/11/17 10:36:15;;;;;;;;;;;;;;;9.43;83.12;96144.06;5055752;28;19929;-57
2022/11/17 10:38:45;;;;;;;;;;;;;;;9.34;82.44;96137.22;5058231;28;20362;-56
2022/11/17 10:41:38;;;;;;;;;;;;;;;9.34;83.18;96135.28;5065581;28;19983;-64
2022/11/17 10:44:07;;;;;;;;;;;;;;;9.28;83.42;96135.88;5069658;28;19932;-56
2022/11/17 10:46:36;;;;;;;;;;;;;;;9.26;83.70;96144.34;5064041;28;19933;-56
2022/11/17 10:49:22;;;;;;;;;;;;;;;9.27;83.66;96135.09;5067919;28;19925;-56
2022/11/17 10:51:53;;;;;;;;;;;;;;;9.29;84.03;96138.25;5069056;28;19973;-57
2022/11/17 10:54:21;;;;;;;;;;;;;;;9.28;83.51;96136.66;5061178;28;19925;-56
2022/11/17 10:56:50;;;;;;;;;;;;;;;9.28;83.99;96144.81;5066698;28;19934;-55
2022/11/17 10:59:18;;;;;;;;;;;;;;;9.31;83.63;96144.09;5060496;28;19924;-55
2022/11/17 11:01:49;;;;;;;;;;;;;;;9.37;83.43;96141.91;5073495;28;19924;-56
2022/11/17 11:04:35;;;;;;;;;;;;;;;9.47;82.58;96143.34;5056734;28;19925;-56
2022/11/17 11:07:07;;;;;;;;;;;;;;;9.53;82.65;96150.88;5086602;28;19925;-57
2022/11/17 11:09:36;;;;;;;;;;;;;;;9.52;82.58;96146.59;5068011;28;19925;-56
2022/11/17 11:12:04;;;;;;;;;;;;;;;9.56;82.59;96135.84;5070237;28;20385;-57
2022/11/17 11:14:33;;;;;;;;;;;;;;;9.64;82.76;96132.16;5068309;28;20398;-57
2022/11/17 11:17:27;;;;;;;;;;;;;;;9.66;82.92;96125.28;5078186;28;19925;-57
2022/11/17 11:19:57;;;;;;;;;;;;;;;9.70;83.04;96134.28;5082011;28;19927;-57
2022/11/17 11:22:27;;;;;;;;;;;;;;;9.74;83.10;96144.44;5075989;28;19939;-57
2022/11/17 11:24:56;;;;;;;;;;;;;;;9.77;82.90;96147.25;5109784;27;19934;-57
2022/11/17 11:27:28;;;;;;;;;;;;;;;9.75;82.41;96144.09;5082552;28;20069;-57
2022/11/17 11:30:01;;;;;;;;;;;;;;;9.69;82.22;96119.16;5102664;27;19974;-57
2022/11/17 11:32:32;;;;;;;;;;;;;;;9.74;82.81;96109.97;5110854;27;19923;-57
2022/11/17 11:35:08;;;;;;;;;;;;;;;9.82;81.57;96097.38;5106062;28;19958;-57
2022/11/17 11:37:44;;;;;;;;;;;;;;;9.90;82.61;96102.63;5099372;28;19924;-57
2022/11/17 11:40:15;;;;;;;;;;;;;;;9.96;82.01;96109.38;5098282;27;20396;-57
2022/11/17 11:43:09;;;;;;;;;;;;;;;10.05;81.43;96100.25;5122700;27;19934;-57
2022/11/17 11:45:41;;;;;;;;;;;;;;;10.02;82.28;96103.69;5125221;27;19931;-57
2022/11/17 11:48:21;;;;;;;;;;;;;;;10.08;81.76;96107.69;5116121;27;19923;-57
2022/11/17 11:50:54;;;;;;;;;;;;;;;10.04;81.72;96112.25;5113516;27;20300;-57
2022/11/17 11:53:32;;;;;;;;;;;;;;;10.02;81.92;96112.59;5111978;27;19923;-56
2022/11/17 11:56:03;;;;;;;;;;;;;;;10.02;82.08;96109.09;5112722;28;19928;-57
2022/11/17 11:58:31;;;;;;;;;;;;;;;10.03;81.96;96107.97;5109423;28;19977;-55
2022/11/17 12:01:02;;;;;;;;;;;;;;;10.09;80.79;96103.84;5115024;27;19930;-57
2022/11/17 12:03:33;;;;;;;;;;;;;;;10.13;81.82;96096.59;5110445;27;20339;-56
2022/11/17 12:08:52;;;;;;;;;;;;;;;10.16;81.13;96088.50;5117147;27;19931;-56
2022/11/17 12:14:05;;;;;;;;;;;;;;;10.15;80.78;96086.94;5109653;28;19967;-56
2022/11/17 12:16:33;;;;;;;;;;;;;;;10.31;80.45;96078.78;5116783;27;19924;-56
2022/11/17 12:19:03;;;;;;;;;;;;;;;10.44;79.74;96080.25;5109492;27;19931;-56
2022/11/17 12:21:38;;;;;;;;;;;;;;;10.59;78.82;96092.19;5103147;27;20296;-57
2022/11/17 12:24:14;;;;;;;;;;;;;;;10.70;78.04;96090.50;5111127;27;19959;-57
2022/11/17 12:26:42;;;;;;;;;;;;;;;10.78;78.45;96096.09;5112943;27;19959;-56
2022/11/17 12:29:29;;;;;;;;;;;;;;;10.83;77.46;96085.72;5111561;27;19931;-57
2022/11/17 12:31:58;;;;;;;;;;;;;;;10.95;77.38;96090.22;5104896;28;19932;-57
2022/11/17 12:34:29;;;;;;;;;;;;;;;10.89;76.51;96097.88;5093561;27;20300;-56
2022/11/17 12:37:24;;;;;;;;;;;;;;;10.79;77.40;96093.00;5113408;27;19924;-56
2022/11/17 12:40:04;;;;;;;;;;;;;;;10.79;76.70;96089.50;5090325;28;19931;-56
2022/11/17 12:42:32;;;;;;;;;;;;;;;10.90;76.69;96088.56;5110928;27;19924;-57
2022/11/17 12:45:02;;;;;;;;;;;;;;;10.98;76.63;96084.88;5102233;28;19924;-56
2022/11/17 12:47:31;;;;;;;;;;;;;;;10.88;76.50;96077.28;5100975;28;19952;-57
2022/11/17 12:50:14;;;;;;;;;;;;;;;10.87;77.83;96083.88;5107802;28;19931;-56
2022/11/17 12:52:46;;;;;;;;;;;;;;;10.93;77.17;96082.44;5092981;27;19946;-56
2022/11/17 12:55:17;;;;;;;;;;;;;;;11.07;76.98;96076.47;5108871;28;19989;-56
2022/11/17 12:57:45;;;;;;;;;;;;;;;11.19;76.37;96073.63;5111535;27;19970;-57
2022/11/17 13:00:15;;;;;;;;;;;;;;;11.44;76.55;96073.28;5110612;28;19931;-57
2022/11/17 13:02:47;;;;;;;;;;;;;;;11.61;76.18;96078.28;5082647;28;20398;-56
2022/11/17 13:05:41;;;;;;;;;;;;;;;11.72;75.29;96078.44;5090152;28;19936;-57
2022/11/17 13:08:19;;;;;;;;;;;;;;;11.75;74.26;96064.09;5103997;28;19924;-55
2022/11/17 13:10:52;;;;;;;;;;;;;;;11.71;73.28;96049.66;5102781;28;19935;-56
2022/11/17 13:13:45;;;;;;;;;;;;;;;11.57;73.46;96054.88;5106069;27;20337;-55
2022/11/17 13:16:39;;;;;;;;;;;;;;;11.59;72.48;96145.03;5112284;27;19932;-56
2022/11/17 13:19:21;;;;;;;;;;;;;;;11.34;70.60;96161.66;5107214;28;19958;-57
2022/11/17 13:21:50;;;;;;;;;;;;;;;10.67;70.96;96167.25;5106106;28;19924;-56
2022/11/17 13:24:29;;;;;;;;;;;;;;;10.26;71.46;96171.34;5103759;28;19938;-55
2022/11/17 13:26:58;;;;;;;;;;;;;;;9.92;72.01;96192.59;5109530;27;19959;-56
2022/11/17 13:29:26;;;;;;;;;;;;;;;9.71;73.54;96181.19;5086159;28;19950;-56
2022/11/17 13:32:17;;;;;;;;;;;;;;;9.43;74.67;96182.00;5079103;28;19928;-56
2022/11/17 13:34:46;;;;;;;;;;;;;;;9.26;76.93;96181.50;5105316;28;19969;-56
2022/11/17 13:37:16;;;;;;;;;;;;;;;9.08;78.47;96181.00;5119388;27;19980;-57
2022/11/17 13:39:56;;;;;;;;;;;;;;;9.00;79.97;96184.63;5120828;27;19934;-56
2022/11/17 13:42:24;;;;;;;;;;;;;;;8.91;80.88;96190.97;5113216;27;19923;-57
2022/11/17 13:44:53;;;;;;;;;;;;;;;8.90;81.22;96169.66;5109069;27;19930;-55
2022/11/17 13:47:25;;;;;;;;;;;;;;;8.87;82.01;96167.63;5106359;27;19947;-56
2022/11/17 13:49:54;;;;;;;;;;;;;;;8.90;82.78;96170.44;5104470;28;19927;-56
2022/11/17 13:52:33;;;;;;;;;;;;;;;8.90;82.78;96158.81;5106102;27;19980;-56
2022/11/17 13:55:34;;;;;;;;;;;;;;;8.99;82.79;96158.66;5108980;27;19934;-56
2022/11/17 13:58:03;;;;;;;;;;;;;;;9.11;82.93;96166.78;5103438;28;19931;-56
2022/11/17 14:00:31;;;;;;;;;;;;;;;9.17;82.58;96173.53;5090173;28;20402;-58
2022/11/17 14:03:00;;;;;;;;;;;;;;;9.16;82.26;96169.22;5104822;28;19959;-55
2022/11/17 14:05:28;;;;;;;;;;;;;;;9.14;81.76;96166.06;5105825;28;19924;-57
2022/11/17 14:07:58;;;;;;;;;;;;;;;9.10;81.46;96173.31;5109906;27;19923;-56
2022/11/17 14:10:27;;;;;;;;;;;;;;;9.08;82.41;96168.25;5079455;28;19928;-56
2022/11/17 14:13:23;;;;;;;;;;;;;;;9.12;82.63;96157.50;5108018;27;19924;-56